createdAt,value
2024-02-29T00:08:54.809Z,45.20
2024-02-29T00:09:24.975Z,43.65
2024-02-29T00:10:24.972Z,43.44
2024-02-29T00:11:24.985Z,42.31
2024-02-29T00:12:25.001Z,43.59
2024-02-29T00:13:24.967Z,43.18
2024-02-29T00:14:24.983Z,41.76
2024-02-29T00:15:24.976Z,41.44
2024-02-29T00:16:24.978Z,45.80
2024-02-29T00:17:25.003Z,44.79
2024-02-29T00:18:24.995Z,45.14
2024-02-29T00:19:24.992Z,44.99
2024-02-29T00:20:24.980Z,42.48
2024-02-29T00:21:24.975Z,44.46
2024-02-29T00:22:25.038Z,43.42
2024-02-29T00:23:25.020Z,42.94
2024-02-29T00:24:25.002Z,43.47
2024-02-29T00:25:24.996Z,44.76
2024-02-29T00:29:03.687Z,43.43
2024-02-29T00:29:33.694Z,44.23
2024-02-29T00:30:33.727Z,45.27
2024-02-29T00:31:33.684Z,43.22
2024-02-29T00:32:33.705Z,43.70
2024-02-29T00:33:33.762Z,44.90
2024-02-29T00:34:33.710Z,43.70
2024-02-29T00:35:33.702Z,45.42
2024-02-29T00:36:33.702Z,43.67
2024-02-29T00:37:33.720Z,43.63
2024-02-29T00:39:06.237Z,42.77
2024-02-29T00:39:34.747Z,42.47
2024-02-29T00:40:33.704Z,43.08
2024-02-29T00:41:33.709Z,43.52
2024-02-29T00:42:33.735Z,42.54
2024-02-29T00:48:18.097Z,42.81
2024-02-29T00:48:51.121Z,45.46
2024-02-29T00:49:51.078Z,43.54
2024-02-29T00:50:51.091Z,45.90
2024-02-29T00:51:51.148Z,46.38
2024-02-29T00:52:51.101Z,44.48
2024-02-29T00:53:51.104Z,44.57
2024-02-29T00:54:51.158Z,42.87
2024-02-29T00:55:51.088Z,45.59
2024-02-29T00:56:51.101Z,45.19
2024-02-29T00:57:51.139Z,43.32
2024-02-29T00:58:51.114Z,43.08
2024-02-29T00:59:51.098Z,43.35
2024-02-29T01:00:51.189Z,43.23
2024-02-29T01:01:51.260Z,44.18
2024-02-29T01:02:51.146Z,43.34
2024-02-29T01:03:51.218Z,42.85
2024-02-29T01:04:51.121Z,42.44
2024-02-29T01:05:51.110Z,42.18
2024-02-29T01:07:18.150Z,41.49
2024-02-29T01:07:51.123Z,43.12
2024-02-29T01:08:51.163Z,42.07
2024-02-29T01:09:51.181Z,42.27
2024-02-29T01:11:18.212Z,45.99
2024-02-29T01:11:51.137Z,44.45
2024-02-29T01:12:51.156Z,42.42
2024-02-29T01:13:51.123Z,44.54
2024-02-29T01:14:51.166Z,42.32
2024-02-29T01:15:51.135Z,43.81
2024-02-29T01:16:51.132Z,43.02
2024-02-29T01:17:51.787Z,41.10
2024-02-29T01:23:38.546Z,42.80
2024-02-29T01:24:08.542Z,43.63
2024-02-29T01:25:08.550Z,42.93
2024-02-29T01:26:08.533Z,43.81
2024-02-29T01:27:08.563Z,45.32
2024-02-29T01:28:08.607Z,45.63
2024-02-29T01:29:08.523Z,44.76
2024-02-29T01:30:08.560Z,44.14
2024-02-29T01:31:08.553Z,46.16
2024-02-29T01:32:15.862Z,45.20
2024-02-29T01:34:58.051Z,45.09
2024-02-29T01:35:08.550Z,45.05
2024-02-29T01:36:09.191Z,46.54
2024-02-29T01:42:59.896Z,44.20
2024-02-29T01:43:30.537Z,45.12
2024-02-29T01:44:30.617Z,43.68
2024-02-29T01:48:06.319Z,43.42
2024-02-29T01:48:39.274Z,43.37
2024-02-29T01:50:03.757Z,43.43
2024-02-29T01:50:39.269Z,44.27
2024-02-29T01:51:39.288Z,45.69
2024-02-29T01:58:30.511Z,43.62
2024-02-29T01:59:01.155Z,47.69
2024-02-29T02:00:01.194Z,44.87
2024-02-29T02:01:01.307Z,44.27
2024-02-29T02:02:01.329Z,45.74
2024-02-29T02:03:01.274Z,46.40
2024-02-29T02:04:06.381Z,46.69
2024-02-29T02:05:01.322Z,45.02
2024-02-29T02:06:01.345Z,45.19
2024-02-29T02:07:01.374Z,45.33
2024-02-29T02:08:01.324Z,46.23
2024-02-29T02:09:32.709Z,43.91
2024-02-29T02:10:01.410Z,45.09
2024-02-29T02:11:01.406Z,44.07
2024-02-29T02:12:01.345Z,45.17
2024-02-29T02:13:01.411Z,44.88
2024-02-29T02:14:01.355Z,46.15
2024-02-29T02:15:01.346Z,47.92
2024-02-29T02:16:01.481Z,45.63
2024-02-29T02:17:01.358Z,46.46
2024-02-29T02:18:01.407Z,46.88
2024-02-29T02:19:01.395Z,46.53
2024-02-29T02:20:01.552Z,46.03
2024-02-29T02:21:01.366Z,45.19
2024-02-29T02:22:01.366Z,46.16
2024-02-29T02:23:01.348Z,47.65
2024-02-29T02:24:06.384Z,45.36
2024-02-29T02:25:01.405Z,46.18
2024-02-29T02:26:01.357Z,45.12
2024-02-29T02:27:01.376Z,46.24
2024-02-29T02:28:01.375Z,44.96
2024-02-29T02:29:06.376Z,44.56
2024-02-29T02:30:01.357Z,42.18
2024-02-29T02:36:50.183Z,46.17
2024-02-29T02:37:23.104Z,46.41
2024-02-29T02:38:23.115Z,47.66
2024-02-29T02:39:23.744Z,47.56
2024-02-29T02:40:23.113Z,48.47
2024-02-29T02:41:23.105Z,48.78
2024-02-29T02:42:23.121Z,49.23
2024-02-29T02:43:23.101Z,48.17
2024-02-29T02:44:28.894Z,48.85
2024-02-29T02:45:23.104Z,49.12
2024-02-29T02:46:23.114Z,47.46
2024-02-29T02:47:23.146Z,48.22
2024-02-29T02:48:23.120Z,50.73
2024-02-29T02:49:23.113Z,48.77
2024-02-29T02:50:23.200Z,49.02
2024-02-29T02:51:23.120Z,48.70
2024-02-29T02:52:23.163Z,48.76
2024-02-29T02:53:23.116Z,47.94
2024-02-29T02:59:07.534Z,47.84
2024-02-29T02:59:40.611Z,48.67
2024-02-29T03:00:40.657Z,46.97
2024-02-29T03:01:40.818Z,49.41
2024-02-29T03:02:40.588Z,50.00
2024-02-29T03:03:40.543Z,48.50
2024-02-29T03:05:07.857Z,49.77
2024-02-29T03:05:40.510Z,47.20
2024-02-29T03:07:07.691Z,49.87
2024-02-29T03:07:40.618Z,49.58
2024-02-29T03:08:40.515Z,49.80
2024-02-29T03:17:41.996Z,50.63
2024-02-29T03:18:10.978Z,49.16
2024-02-29T03:19:10.981Z,48.98
2024-02-29T03:20:10.957Z,52.33
2024-02-29T03:21:10.982Z,48.91
2024-02-29T03:22:11.055Z,50.59
2024-02-29T03:23:10.956Z,48.82
2024-02-29T03:24:10.972Z,49.83
2024-02-29T03:25:11.063Z,48.58
2024-02-29T03:26:10.988Z,49.50
2024-02-29T03:27:11.058Z,48.65
2024-02-29T03:28:10.969Z,46.52
2024-02-29T03:29:10.962Z,48.84
2024-02-29T03:30:10.962Z,48.00
2024-02-29T03:31:11.060Z,49.63
2024-02-29T03:32:10.991Z,50.74
2024-02-29T03:33:11.038Z,49.70
2024-02-29T03:34:10.982Z,48.45
2024-02-29T03:50:39.025Z,50.26
2024-02-29T03:51:11.878Z,50.85
2024-02-29T04:30:11.028Z,51.04
2024-02-29T04:30:44.093Z,50.69
2024-02-29T04:31:43.992Z,49.84
2024-02-29T04:32:44.010Z,49.89
2024-02-29T04:33:44.027Z,46.48
2024-02-29T04:49:12.632Z,47.30
2024-02-29T04:49:40.507Z,48.62
2024-02-29T04:50:40.517Z,48.62
2024-02-29T04:51:40.548Z,49.45
2024-02-29T04:52:40.592Z,48.71
2024-02-29T04:53:40.545Z,48.29
2024-02-29T04:54:40.546Z,49.14
2024-02-29T04:55:40.524Z,47.88
2024-02-29T04:56:40.513Z,48.22
2024-02-29T04:57:40.661Z,51.43
2024-02-29T04:58:40.671Z,50.25
2024-02-29T04:59:40.675Z,50.65
2024-02-29T05:00:40.793Z,50.14
2024-02-29T05:01:40.936Z,52.30
2024-02-29T05:02:40.763Z,51.76
2024-02-29T05:03:40.954Z,50.14
2024-02-29T05:04:40.972Z,47.48
2024-02-29T05:05:40.893Z,49.62
2024-02-29T05:06:40.927Z,49.54
2024-02-29T05:07:40.958Z,52.08
2024-02-29T05:08:41.014Z,51.30
2024-02-29T05:13:23.575Z,51.19
2024-02-29T05:13:54.247Z,50.22
2024-02-29T05:14:54.232Z,51.16
2024-02-29T05:15:54.317Z,50.47
2024-02-29T05:20:37.194Z,48.53
2024-02-29T05:21:07.385Z,44.61
2024-02-29T05:22:07.449Z,50.53
2024-02-29T05:23:07.373Z,49.80
2024-02-29T05:24:07.374Z,47.94
2024-02-29T05:25:07.415Z,47.26
2024-02-29T05:26:07.375Z,48.20
2024-02-29T05:27:07.381Z,52.88
2024-02-29T05:28:07.452Z,49.28
2024-02-29T05:29:07.434Z,51.04
2024-02-29T05:30:07.386Z,51.11
2024-02-29T05:31:07.399Z,50.57
2024-02-29T05:32:07.386Z,50.47
2024-02-29T05:33:07.477Z,49.27
2024-02-29T05:34:07.400Z,49.72
2024-02-29T05:35:07.399Z,52.44
2024-02-29T05:36:07.400Z,50.75
2024-02-29T05:37:07.414Z,50.85
2024-02-29T05:38:07.395Z,49.40
2024-02-29T05:54:38.603Z,49.88
2024-02-29T05:55:08.315Z,51.94
2024-02-29T05:56:08.260Z,48.87
2024-02-29T05:57:08.270Z,50.17
2024-02-29T05:58:08.314Z,50.85
2024-02-29T05:59:08.276Z,50.09
2024-02-29T06:00:08.265Z,49.69
2024-02-29T06:01:08.366Z,50.73
2024-02-29T06:02:08.338Z,48.44
2024-02-29T06:03:08.271Z,49.81
2024-02-29T06:04:08.336Z,50.71
2024-02-29T06:05:08.284Z,54.18
2024-02-29T06:06:08.284Z,52.78
2024-02-29T06:07:08.303Z,50.81
2024-02-29T06:08:08.341Z,52.04
2024-02-29T06:09:08.284Z,53.81
2024-02-29T06:10:08.412Z,50.59
2024-02-29T06:11:08.300Z,51.80
2024-02-29T06:12:08.276Z,50.88
2024-02-29T06:13:08.285Z,51.19
2024-02-29T06:14:08.283Z,52.79
2024-02-29T06:15:11.086Z,49.72
2024-02-29T06:16:08.350Z,51.22
2024-02-29T06:17:08.303Z,50.21
2024-02-29T06:18:08.405Z,46.72
2024-02-29T06:19:08.381Z,47.80
2024-02-29T06:20:08.296Z,42.61
2024-02-29T06:21:08.305Z,43.44
2024-02-29T06:22:08.370Z,44.24
2024-02-29T06:40:50.907Z,51.59
2024-02-29T06:41:17.865Z,52.97
2024-02-29T06:42:17.837Z,51.80
2024-02-29T06:43:17.966Z,51.63
2024-02-29T06:44:17.879Z,49.91
2024-02-29T06:45:18.030Z,50.76
2024-02-29T06:46:17.889Z,49.95
2024-02-29T06:47:17.900Z,48.96
2024-02-29T06:48:17.879Z,49.07
2024-02-29T06:49:17.966Z,49.84
2024-02-29T06:50:17.856Z,49.77
2024-02-29T06:51:17.861Z,49.11
2024-02-29T06:52:17.894Z,50.34
2024-02-29T06:53:18.065Z,49.73
2024-02-29T06:54:17.860Z,49.31
2024-02-29T06:55:17.958Z,51.22
2024-02-29T06:56:17.859Z,50.46
2024-02-29T06:57:17.858Z,45.77
2024-02-29T06:58:17.883Z,49.65
2024-02-29T06:59:17.864Z,49.34
2024-02-29T07:00:17.861Z,49.30
2024-02-29T07:01:17.913Z,49.22
2024-02-29T07:02:17.869Z,46.53
2024-02-29T07:03:17.885Z,47.66
2024-02-29T07:04:17.957Z,46.81
2024-02-29T07:05:17.898Z,47.60
2024-02-29T07:06:17.866Z,49.11
2024-02-29T07:07:17.995Z,52.80
2024-02-29T07:08:17.896Z,53.44
2024-02-29T07:09:17.889Z,53.21
2024-02-29T07:10:18.031Z,51.02
2024-02-29T07:11:17.903Z,47.75
2024-02-29T07:12:17.897Z,48.69
2024-02-29T07:13:17.985Z,51.52
2024-02-29T07:14:17.885Z,50.32
2024-02-29T07:15:17.935Z,46.35
2024-02-29T07:16:17.918Z,49.26
2024-02-29T07:17:17.894Z,48.35
2024-02-29T07:18:17.957Z,48.47
2024-02-29T07:19:18.012Z,49.03
2024-02-29T07:20:17.892Z,48.68
2024-02-29T07:21:17.903Z,48.31
2024-02-29T07:22:17.966Z,49.57
2024-02-29T07:23:17.904Z,49.75
2024-02-29T07:24:17.895Z,47.96
2024-02-29T07:25:17.975Z,50.67
2024-02-29T07:26:17.898Z,50.51
2024-02-29T07:36:15.209Z,50.27
2024-02-29T07:36:52.712Z,50.46
2024-02-29T07:50:15.528Z,52.86
2024-02-29T07:50:52.506Z,51.00
2024-02-29T07:54:21.951Z,50.01
2024-02-29T07:54:59.136Z,50.00
2024-02-29T07:55:59.144Z,48.70
2024-02-29T07:56:59.118Z,48.08
2024-02-29T07:57:59.182Z,48.54
2024-02-29T08:01:34.929Z,46.70
2024-02-29T08:02:07.969Z,46.08
2024-02-29T08:03:07.850Z,48.33
2024-02-29T08:04:07.862Z,46.90
2024-02-29T08:05:07.895Z,47.98
2024-02-29T08:06:07.846Z,47.95
2024-02-29T08:07:07.838Z,48.95
2024-02-29T08:08:07.839Z,48.35
2024-02-29T08:09:10.378Z,48.29
2024-02-29T08:10:08.075Z,48.08
2024-02-29T08:11:07.835Z,47.40
2024-02-29T08:12:07.876Z,47.18
2024-02-29T08:13:07.911Z,48.71
2024-02-29T08:14:07.846Z,46.29
2024-02-29T08:15:07.853Z,47.45
2024-02-29T08:16:07.939Z,47.15
2024-02-29T08:17:07.870Z,47.16
2024-02-29T08:18:34.563Z,47.12
2024-02-29T08:22:47.910Z,44.74
2024-02-29T08:23:20.903Z,44.53
2024-02-29T08:24:20.895Z,45.21
2024-02-29T08:25:21.076Z,45.37
2024-02-29T08:26:20.884Z,46.96
2024-02-29T08:27:20.920Z,47.22
2024-02-29T08:28:20.957Z,47.94
2024-02-29T08:29:20.897Z,45.81
2024-02-29T08:34:00.383Z,44.68
2024-02-29T08:34:36.171Z,45.20
2024-02-29T08:36:01.241Z,44.05
2024-02-29T08:36:36.190Z,46.45
2024-02-29T08:40:19.899Z,46.53
2024-02-29T08:42:27.957Z,45.34
2024-02-29T08:43:22.895Z,45.12
2024-02-29T08:44:00.140Z,46.81
2024-02-29T08:45:00.185Z,47.65
2024-02-29T08:46:00.212Z,46.11
2024-02-29T08:54:54.422Z,46.29
2024-02-29T08:55:30.651Z,45.65
2024-02-29T08:56:30.584Z,47.04
2024-02-29T08:57:30.662Z,45.27
2024-02-29T08:58:30.624Z,45.52
2024-02-29T08:59:30.586Z,47.06
2024-02-29T09:00:30.585Z,44.66
2024-02-29T09:01:30.656Z,44.48
2024-02-29T09:02:30.597Z,41.80
2024-02-29T09:03:30.642Z,43.90
2024-02-29T09:04:30.598Z,44.01
2024-02-29T09:05:30.581Z,46.11
2024-02-29T09:06:36.236Z,43.58
2024-02-29T09:07:31.668Z,44.70
2024-02-29T09:08:30.586Z,44.72
2024-02-29T09:20:41.889Z,38.51
2024-02-29T09:21:14.754Z,40.81
2024-02-29T09:22:14.847Z,41.41
2024-02-29T09:23:14.752Z,42.28
2024-02-29T09:24:16.093Z,39.82
2024-02-29T09:25:14.848Z,37.27
2024-02-29T09:26:14.873Z,36.76
2024-02-29T09:27:14.750Z,39.34
2024-02-29T09:28:14.905Z,39.27
2024-02-29T09:29:14.800Z,37.13
2024-02-29T09:30:14.766Z,37.55
2024-02-29T09:31:14.874Z,36.85
2024-02-29T09:32:14.760Z,32.01
2024-02-29T09:33:14.803Z,33.10
2024-02-29T09:34:14.788Z,31.56
2024-02-29T09:35:14.778Z,31.64
2024-02-29T09:36:14.823Z,33.44
2024-02-29T09:37:14.819Z,32.82
2024-02-29T09:38:14.780Z,35.34
2024-02-29T09:39:14.786Z,34.61
2024-02-29T09:40:14.824Z,35.36
2024-02-29T09:42:15.561Z,32.71
2024-02-29T09:43:14.852Z,31.40
2024-02-29T09:44:14.773Z,30.58
2024-02-29T09:45:24.351Z,31.84
2024-02-29T09:46:22.754Z,32.46
2024-02-29T09:47:22.708Z,32.53
2024-02-29T09:48:22.753Z,31.62
2024-02-29T09:49:22.816Z,31.25
2024-02-29T09:50:22.850Z,24.32
2024-02-29T09:51:22.922Z,20.97
2024-02-29T09:52:22.978Z,21.58
2024-02-29T09:53:22.990Z,22.65
2024-02-29T09:54:23.073Z,21.61
2024-02-29T09:55:23.130Z,23.73
2024-02-29T09:56:23.146Z,22.50
2024-02-29T09:57:23.178Z,22.34
2024-02-29T09:58:23.249Z,22.33
2024-02-29T09:59:23.190Z,23.20
2024-02-29T10:00:23.232Z,23.62
2024-02-29T10:01:23.632Z,23.20
2024-02-29T10:02:23.301Z,23.67
2024-02-29T10:03:23.359Z,22.39
2024-02-29T10:04:23.467Z,21.72
2024-02-29T10:05:23.469Z,21.56
2024-02-29T10:06:23.468Z,21.62
2024-02-29T10:07:23.779Z,23.95
2024-02-29T10:08:23.511Z,22.56
2024-02-29T10:09:23.550Z,24.02
2024-02-29T10:10:23.856Z,24.56
2024-02-29T10:11:23.675Z,24.01
2024-02-29T10:12:23.657Z,23.13
2024-02-29T10:13:23.788Z,22.78
2024-02-29T10:14:23.796Z,22.74
2024-02-29T10:15:23.817Z,23.29
2024-02-29T10:16:24.989Z,24.63
2024-02-29T10:17:23.885Z,23.94
2024-02-29T10:18:23.875Z,24.83
2024-02-29T10:19:24.042Z,23.91
2024-02-29T10:20:23.904Z,25.47
2024-02-29T10:21:23.872Z,25.85
2024-02-29T10:23:23.879Z,26.89
2024-02-29T10:24:24.329Z,25.57
2024-02-29T10:25:23.915Z,25.21
2024-02-29T10:26:23.877Z,26.55
2024-02-29T10:27:23.881Z,25.91
2024-02-29T10:28:23.916Z,26.89
2024-02-29T10:29:25.085Z,26.72
2024-02-29T10:30:23.893Z,26.53
2024-02-29T10:31:23.980Z,26.41
2024-02-29T10:32:23.915Z,26.94
2024-02-29T10:33:23.917Z,26.44
2024-02-29T10:34:24.059Z,25.42
2024-02-29T10:35:23.929Z,26.80
2024-02-29T10:36:23.924Z,23.95
2024-02-29T10:37:23.928Z,24.66
2024-02-29T10:38:24.282Z,25.20
2024-02-29T10:39:23.901Z,26.16
2024-02-29T10:40:23.998Z,26.28
2024-02-29T10:41:23.910Z,26.36
2024-02-29T10:42:23.986Z,27.00
2024-02-29T10:43:23.970Z,26.75
2024-02-29T10:44:23.908Z,26.61
2024-02-29T10:45:26.706Z,25.84
2024-02-29T10:46:23.951Z,26.13
2024-02-29T10:47:23.949Z,27.67
2024-02-29T10:48:23.916Z,27.85
2024-02-29T10:49:23.943Z,28.69
2024-02-29T10:50:23.928Z,26.53
2024-02-29T10:51:27.168Z,26.48
2024-02-29T10:52:24.012Z,25.66
2024-02-29T10:53:23.917Z,25.89
2024-02-29T10:54:23.956Z,27.01
2024-02-29T10:55:24.060Z,25.73
2024-02-29T10:56:23.939Z,26.94
2024-02-29T10:57:23.912Z,26.87
2024-02-29T10:58:23.982Z,27.74
2024-02-29T10:59:23.942Z,27.51
2024-02-29T11:00:23.928Z,27.20
2024-02-29T11:01:24.128Z,25.50
2024-02-29T11:02:23.920Z,25.12
2024-02-29T11:03:23.941Z,26.41
2024-02-29T11:04:24.093Z,23.94
2024-02-29T11:05:23.964Z,24.58
2024-02-29T11:06:23.920Z,23.74
2024-02-29T11:07:24.009Z,24.56
2024-02-29T11:08:23.963Z,23.46
2024-02-29T11:09:27.304Z,21.40
2024-02-29T11:10:24.020Z,20.32
2024-02-29T11:11:24.004Z,20.92
2024-02-29T11:12:23.927Z,21.50
2024-02-29T11:13:23.973Z,22.93
2024-02-29T11:18:02.165Z,18.39
2024-02-29T11:19:03.577Z,17.75
2024-02-29T11:19:43.230Z,17.22
2024-02-29T11:20:38.252Z,19.95
2024-02-29T11:27:48.633Z,19.77
2024-02-29T11:28:21.600Z,18.16
2024-02-29T11:29:21.464Z,18.60
2024-02-29T11:30:21.437Z,19.62
2024-02-29T11:31:21.552Z,18.15
2024-02-29T11:32:21.467Z,18.47
2024-02-29T11:33:21.552Z,17.54
2024-02-29T11:34:21.512Z,17.36
2024-02-29T11:35:21.491Z,18.15
2024-02-29T11:36:21.533Z,18.03
2024-02-29T11:37:23.347Z,17.76
2024-02-29T11:38:28.761Z,18.55
2024-02-29T11:39:22.464Z,18.79
2024-02-29T11:40:21.717Z,18.62
2024-02-29T11:41:21.586Z,19.97
2024-02-29T11:42:21.484Z,20.44
2024-02-29T11:43:23.577Z,18.29
2024-02-29T11:44:21.497Z,18.40
2024-02-29T11:45:21.518Z,18.56
2024-02-29T11:46:21.587Z,19.46
2024-02-29T11:47:21.485Z,19.33
2024-02-29T11:48:21.472Z,19.22
2024-02-29T11:49:21.523Z,20.65
2024-02-29T11:57:29.376Z,18.29
2024-02-29T12:04:55.744Z,17.46
2024-02-29T12:11:36.212Z,18.34
2024-02-29T12:12:12.117Z,18.31
2024-02-29T12:13:13.163Z,17.02
2024-02-29T12:14:12.284Z,16.54
2024-02-29T12:15:12.215Z,18.15
2024-02-29T12:25:24.360Z,15.49
2024-02-29T12:30:57.795Z,15.26
2024-02-29T12:31:33.416Z,15.89
2024-02-29T12:36:09.048Z,16.31
2024-02-29T12:36:46.473Z,17.30
2024-02-29T12:37:46.505Z,16.06
2024-02-29T12:38:46.469Z,15.15
2024-02-29T12:39:47.274Z,15.03
2024-02-29T12:40:46.591Z,15.84
2024-02-29T12:41:46.501Z,15.96
2024-02-29T12:42:46.512Z,16.44
2024-02-29T12:43:46.472Z,14.46
2024-02-29T12:44:46.511Z,14.66
2024-02-29T12:45:46.521Z,15.13
2024-02-29T12:46:46.512Z,15.03
2024-02-29T12:47:46.616Z,15.14
2024-02-29T12:48:46.521Z,15.30
2024-02-29T12:49:46.573Z,15.20
2024-02-29T12:50:46.480Z,15.07
2024-02-29T12:51:46.537Z,15.71
2024-02-29T12:52:46.488Z,15.35
2024-02-29T12:53:46.502Z,15.57
2024-02-29T12:54:46.532Z,14.71
2024-02-29T12:55:46.505Z,15.10
2024-02-29T12:56:46.577Z,14.28
2024-02-29T12:57:46.574Z,15.09
2024-02-29T12:58:46.492Z,14.85
2024-02-29T12:59:46.496Z,15.08
2024-02-29T13:00:46.563Z,15.19
2024-02-29T13:01:46.606Z,15.57
2024-02-29T13:02:46.568Z,15.72
2024-02-29T13:03:46.661Z,16.15
2024-02-29T13:04:46.732Z,14.64
2024-02-29T13:05:46.721Z,16.60
2024-02-29T13:06:46.798Z,15.89
2024-02-29T13:07:46.847Z,14.55
2024-02-29T13:08:47.512Z,15.58
2024-02-29T13:09:46.906Z,14.64
2024-02-29T13:10:46.921Z,15.62
2024-02-29T13:11:47.031Z,14.45
2024-02-29T13:12:51.899Z,15.56
2024-02-29T13:13:48.053Z,14.50
2024-02-29T13:14:47.036Z,13.92
2024-02-29T13:15:47.107Z,13.63
2024-02-29T13:16:47.020Z,13.71
2024-02-29T13:17:47.054Z,13.46
2024-02-29T13:18:47.033Z,13.22
2024-02-29T13:19:47.028Z,13.30
2024-02-29T13:20:47.021Z,12.31
2024-02-29T13:21:47.048Z,13.00
2024-02-29T13:22:47.026Z,12.17
2024-02-29T13:23:47.022Z,12.84
2024-02-29T13:24:47.152Z,12.77
2024-02-29T13:25:47.174Z,13.62
2024-02-29T13:26:47.123Z,13.25
2024-02-29T13:27:47.176Z,13.15
2024-02-29T13:28:47.291Z,12.84
2024-02-29T13:29:47.261Z,11.41
2024-02-29T13:30:47.333Z,13.57
2024-02-29T13:31:47.385Z,13.50
2024-02-29T13:32:47.397Z,12.80
2024-02-29T13:33:47.450Z,13.42
2024-02-29T13:34:47.480Z,12.85
2024-02-29T13:35:47.541Z,13.22
2024-02-29T13:36:47.611Z,13.10
2024-02-29T13:37:47.667Z,12.22
2024-02-29T13:38:47.691Z,11.92
2024-02-29T13:39:47.780Z,13.21
2024-02-29T13:40:47.755Z,11.02
2024-02-29T13:41:47.792Z,10.40
2024-02-29T13:42:47.858Z,10.37
2024-02-29T13:43:47.855Z,10.94
2024-02-29T13:44:48.014Z,11.68
2024-02-29T13:45:48.032Z,11.58
2024-02-29T13:46:48.041Z,10.94
2024-02-29T13:47:48.043Z,10.38
2024-02-29T13:48:48.101Z,11.19
2024-02-29T13:49:48.108Z,10.70
2024-02-29T13:50:48.119Z,9.62
2024-02-29T13:51:48.214Z,9.83
2024-02-29T13:52:48.198Z,9.57
2024-02-29T13:53:48.288Z,10.44
2024-02-29T13:54:48.456Z,10.00
2024-02-29T13:55:48.715Z,9.49
2024-02-29T13:56:48.476Z,9.75
2024-02-29T13:57:48.460Z,10.01
2024-02-29T13:58:48.468Z,9.11
2024-02-29T13:59:48.469Z,8.91
2024-02-29T14:00:48.685Z,8.39
2024-02-29T14:01:48.728Z,8.93
2024-02-29T14:02:48.604Z,10.25
2024-02-29T14:03:48.700Z,10.35
2024-02-29T14:04:48.768Z,10.06
2024-02-29T14:05:53.810Z,9.35
2024-02-29T14:06:48.998Z,8.34
2024-02-29T14:07:49.418Z,9.39
2024-02-29T14:08:48.823Z,9.27
2024-02-29T14:09:48.970Z,9.29
2024-02-29T14:10:48.907Z,8.84
2024-02-29T14:11:48.936Z,8.93
2024-02-29T14:12:49.188Z,9.86
2024-02-29T14:13:49.048Z,9.68
2024-02-29T14:14:49.117Z,9.05
2024-02-29T14:15:49.212Z,9.84
2024-02-29T14:16:49.346Z,9.50
2024-02-29T14:17:56.619Z,10.57
2024-02-29T14:18:58.215Z,9.66
2024-02-29T14:19:56.573Z,10.55
2024-02-29T14:20:56.581Z,9.87
2024-02-29T14:21:56.584Z,9.95
2024-02-29T14:22:56.589Z,10.30
2024-02-29T14:23:56.581Z,10.26
2024-02-29T14:24:56.615Z,9.88
2024-02-29T14:25:56.584Z,9.94
2024-02-29T14:26:56.598Z,10.76
2024-02-29T14:27:56.600Z,9.83
2024-02-29T14:28:56.599Z,8.39
2024-02-29T14:29:56.588Z,10.19
2024-02-29T14:30:56.633Z,10.65
2024-02-29T14:31:56.637Z,9.62
2024-02-29T14:32:56.620Z,8.95
2024-02-29T14:33:56.613Z,9.95
2024-02-29T14:34:56.797Z,9.21
2024-02-29T14:35:56.691Z,9.76
2024-02-29T14:36:56.747Z,8.88
2024-02-29T14:37:56.681Z,8.85
2024-02-29T14:38:56.633Z,10.10
2024-02-29T14:39:56.735Z,10.10
2024-02-29T14:40:56.667Z,11.63
2024-02-29T14:41:56.724Z,12.05
2024-02-29T14:42:56.803Z,9.53
2024-02-29T14:43:56.856Z,10.44
2024-02-29T14:44:56.872Z,9.97
2024-02-29T14:45:56.926Z,10.03
2024-02-29T14:46:56.952Z,10.78
2024-02-29T14:47:57.098Z,9.64
2024-02-29T14:48:57.042Z,9.93
2024-02-29T14:49:57.072Z,9.52
2024-02-29T14:50:57.225Z,9.09
2024-02-29T14:51:57.235Z,10.27
2024-02-29T14:52:57.203Z,8.65
2024-02-29T14:53:57.271Z,6.84
2024-02-29T14:54:57.389Z,7.64
2024-02-29T14:55:57.381Z,10.98
2024-02-29T14:56:57.400Z,8.65
2024-02-29T14:57:57.446Z,8.26
2024-02-29T14:58:57.473Z,9.30
2024-02-29T14:59:57.496Z,8.22
2024-02-29T15:00:57.673Z,8.04
2024-02-29T15:01:58.764Z,8.13
2024-02-29T15:02:57.589Z,10.45
2024-02-29T15:03:57.732Z,12.77
2024-02-29T15:04:57.666Z,9.82
2024-02-29T15:05:57.654Z,13.92
2024-02-29T15:06:58.705Z,14.65
2024-02-29T15:07:57.725Z,14.43
2024-02-29T15:08:57.741Z,12.82
2024-02-29T15:09:57.812Z,12.64
2024-02-29T15:10:57.835Z,11.94
2024-02-29T15:11:57.858Z,11.29
2024-02-29T15:12:58.101Z,11.10
2024-02-29T15:13:57.976Z,11.03
2024-02-29T15:14:57.978Z,9.38
2024-02-29T15:15:58.042Z,9.76
2024-02-29T15:16:58.050Z,10.03
2024-02-29T15:17:58.130Z,10.59
2024-02-29T15:18:58.245Z,11.61
2024-02-29T15:19:58.192Z,12.05
2024-02-29T15:20:58.263Z,10.52
2024-02-29T15:21:58.341Z,12.59
2024-02-29T15:22:58.332Z,12.43
2024-02-29T15:23:58.464Z,10.91
2024-02-29T15:24:58.587Z,12.01
2024-02-29T15:25:58.585Z,14.66
2024-02-29T15:26:58.525Z,15.95
2024-02-29T15:27:58.585Z,15.30
2024-02-29T15:28:58.657Z,17.41
2024-02-29T15:29:58.665Z,16.45
2024-02-29T15:30:58.727Z,15.82
2024-02-29T15:31:58.757Z,15.96
2024-02-29T15:32:58.824Z,16.75
2024-02-29T15:33:58.923Z,16.03
2024-02-29T15:34:58.855Z,16.17
2024-02-29T15:35:58.927Z,17.61
2024-02-29T15:36:58.954Z,17.65
2024-02-29T15:37:58.960Z,18.84
2024-02-29T15:38:58.987Z,17.83
2024-02-29T15:39:59.089Z,17.65
2024-02-29T15:40:59.082Z,17.97
2024-02-29T15:41:59.106Z,17.74
2024-02-29T15:42:59.155Z,17.40
2024-02-29T15:43:59.173Z,18.64
2024-02-29T15:44:59.235Z,18.81
2024-02-29T15:45:59.451Z,17.93
2024-02-29T15:46:59.327Z,19.56
2024-02-29T15:47:59.420Z,18.59
2024-02-29T15:48:59.425Z,18.27
2024-02-29T15:49:59.441Z,17.70
2024-02-29T15:50:59.485Z,17.37
2024-02-29T15:51:59.648Z,17.81
2024-02-29T15:52:59.555Z,18.60
2024-02-29T15:53:59.572Z,17.35
2024-02-29T15:54:59.652Z,17.75
2024-02-29T15:56:02.512Z,18.57
2024-02-29T15:56:59.647Z,18.61
2024-02-29T15:57:59.808Z,17.49
2024-02-29T15:58:59.644Z,18.12
2024-02-29T15:59:59.653Z,18.31
2024-02-29T16:00:59.674Z,19.45
2024-02-29T16:01:59.673Z,18.96
2024-02-29T16:02:59.651Z,17.98
2024-02-29T16:03:59.687Z,19.25
2024-02-29T16:04:59.704Z,19.24
2024-02-29T16:05:59.671Z,18.26
2024-02-29T16:06:59.832Z,19.77
2024-02-29T16:07:59.746Z,19.33
2024-02-29T16:08:59.655Z,20.08
2024-02-29T16:09:59.795Z,20.23
2024-02-29T16:10:59.648Z,19.25
2024-02-29T16:11:59.729Z,18.78
2024-02-29T16:12:59.703Z,20.32
2024-02-29T16:13:59.663Z,20.17
2024-02-29T16:14:59.655Z,19.30
2024-02-29T16:15:59.693Z,17.56
2024-02-29T16:16:59.784Z,19.42
2024-02-29T16:17:59.700Z,18.64
2024-02-29T16:18:59.698Z,18.82
2024-02-29T16:19:59.666Z,19.14
2024-02-29T16:20:59.787Z,20.77
2024-02-29T16:21:59.705Z,20.03
2024-02-29T16:22:59.742Z,19.01
2024-02-29T16:23:59.764Z,17.41
2024-02-29T16:24:59.738Z,16.11
2024-02-29T16:25:59.697Z,16.77
2024-02-29T16:26:59.687Z,18.37
2024-02-29T16:27:59.713Z,17.62
2024-02-29T16:28:59.668Z,16.51
2024-02-29T16:29:59.669Z,16.11
2024-02-29T16:31:00.755Z,17.56
2024-02-29T16:31:59.660Z,18.37
2024-02-29T16:32:59.725Z,17.12
2024-02-29T16:33:59.735Z,17.78
2024-02-29T16:34:59.737Z,16.48
2024-02-29T16:35:59.797Z,19.42
2024-02-29T16:36:59.862Z,13.81
2024-02-29T16:37:59.942Z,15.55
2024-02-29T16:38:59.928Z,15.67
2024-02-29T16:40:00.143Z,15.75
2024-02-29T16:41:00.008Z,13.48
2024-02-29T16:42:00.016Z,14.88
2024-02-29T16:43:00.034Z,18.56
2024-02-29T16:44:00.102Z,19.41
2024-02-29T16:45:00.107Z,17.46
2024-02-29T16:46:00.228Z,16.16
2024-02-29T16:47:00.135Z,18.61
2024-02-29T16:48:00.235Z,18.73
2024-02-29T16:49:00.232Z,16.45
2024-02-29T16:50:00.224Z,15.66
2024-02-29T16:51:00.293Z,16.00
2024-02-29T16:52:00.355Z,19.34
2024-02-29T16:53:00.380Z,18.16
2024-02-29T16:54:00.421Z,20.95
2024-02-29T16:55:00.492Z,16.70
2024-02-29T16:56:00.630Z,13.47
2024-02-29T16:57:00.530Z,12.31
2024-02-29T16:58:00.661Z,16.31
2024-02-29T16:59:00.611Z,16.10
2024-02-29T17:00:00.700Z,15.56
2024-02-29T17:01:00.859Z,15.56
2024-02-29T17:02:00.984Z,14.30
2024-02-29T17:03:00.758Z,14.36
2024-02-29T17:04:00.857Z,14.16
2024-02-29T17:05:00.832Z,14.37
2024-02-29T17:06:00.941Z,14.03
2024-02-29T17:07:01.009Z,12.47
2024-02-29T17:08:00.973Z,14.08
2024-02-29T17:09:01.008Z,12.64